Impacts METAR Board
IDs:

KBWI - Baltimore-Washington, MD, US

Updated at: 2000 UTC 23 Sep 2018
Potential Impact None Slight Moderate High
Time 23/08Z 23/09Z 23/10Z 23/11Z 23/12Z 23/13Z 23/14Z 23/15Z 23/16Z 23/17Z 23/18Z 23/19Z 23/20Z
Temp60 60 60 61 60 60 60 61 61 62 62 62 62
Dewpt58 57 57 58 58 58 59 60 60 61 61 60 60
Altim30.18 30.18 30.18 30.17 30.18 30.20 30.21 30.22 30.22 30.22 30.21 30.20 30.20
VIS10 10 10 10 9 8 7 2.5 2.5 8 9 9 7
CIG27 27 27 27 90 95 70 8 13 8 7 15 14
CoverOVCOVCOVCOVCOVCOVCOVCOVCOVCOVCOVCOVCOVC
FltCatMVFRMVFRMVFRMVFRVFRVFRVFRIFRIFRIFRIFRMVFRMVFR
WX-RA-RA-----RA-RA-RARA BR-RA BR-RA-RA-RA-RA
WDir036020003050405060707060
WSpd0 3 3 4 5 4 6 8 7 6 8 8 7
WGst-- -- -- -- -- -- -- -- -- -- -- -- --
Raw hourly METARs
KBWI 230801Z 00000KT 10SM -RA BKN027 OVC065 16/14 A3018 RMK AO2 P0000 T01560144
KBWI 230854Z 36003KT 10SM -RA BKN027 OVC065 16/14 A3018 RMK AO2 SLP220 P0000 60002 T01560139 58001
KBWI 230954Z 02003KT 10SM BKN027 BKN065 OVC100 16/14 A3018 RMK AO2 RAE25 SLP220 P0001 T01560139
KBWI 231054Z VRB04KT 10SM BKN027 BKN065 OVC090 16/14 A3017 RMK AO2 RAB34E53 SLP217 P0000 T01610144
KBWI 231154Z VRB05KT 9SM -RA SCT065 OVC090 16/14 A3018 RMK AO2 RAB1055 SLP220 P0001 60004 70004 T01560144 10167 20150 55000
KBWI 231254Z 03004KT 8SM -RA FEW020 BKN095 OVC120 16/14 A3020 RMK AO2 SLP227 P0005 T01560144
KBWI 231354Z 05006KT 7SM -RA FEW030 SCT050 OVC070 16/15 A3021 RMK AO2 SLP231 P0005 T01560150
KBWI 231454Z 04008KT 2 1/2SM RA BR BKN008 BKN026 OVC046 16/16 A3022 RMK AO2 SLP233 P0015 60025 T01610156 51014
KBWI 231554Z 05007KT 2 1/2SM -RA BR BKN013 BKN047 OVC070 16/16 A3022 RMK AO2 SLP233 P0016 T01610156
KBWI 231654Z 06006KT 8SM -RA BKN008 BKN022 OVC030 17/16 A3022 RMK AO2 SLP231 P0003 T01670161
KBWI 231754Z 07008KT 9SM -RA BKN007 BKN012 OVC022 17/16 A3021 RMK AO2 SLP228 P0004 60048 T01670161 10172 20156 56005
KBWI 231854Z 07008KT 9SM -RA SCT009 OVC015 17/16 A3020 RMK AO2 RAE19B46 SLP227 P0000 T01670156
KBWI 231954Z 06007KT 7SM -RA SCT008 BKN014 OVC021 17/16 A3020 RMK AO2 SLP226 P0002 T01670156



Page loaded:  20:08 UTC  |   01:08 PM Pacific  |   02:08 PM Mountain  |   03:08 PM Central  |   04:08 PM Eastern

 

ADVISORIES

FORECASTS

FORECASTS

OBSERVATIONS

USER TOOLS

ABOUT US